createdAt,value
2018-06-03T00:00:06.374Z,31.07
2018-06-03T00:02:34.636Z,27.90
2018-06-03T00:05:02.940Z,31.77
2018-06-03T00:07:31.211Z,31.70
2018-06-03T00:10:00.231Z,33.43
2018-06-03T00:12:28.518Z,32.20
2018-06-03T00:14:56.799Z,30.53
2018-06-03T00:17:25.914Z,31.17
2018-06-03T00:19:55.030Z,33.43
2018-06-03T00:22:38.157Z,31.47
2018-06-03T00:25:07.214Z,29.47
2018-06-03T00:27:35.569Z,34.70
2018-06-03T00:30:04.587Z,32.93
2018-06-03T00:32:32.973Z,30.60
2018-06-03T00:35:01.241Z,34.37
2018-06-03T00:37:30.269Z,34.20
2018-06-03T00:39:58.562Z,34.97
2018-06-03T00:42:26.814Z,34.77
2018-06-03T00:44:55.854Z,35.73
2018-06-03T00:47:24.119Z,36.93
2018-06-03T00:49:53.162Z,35.33
2018-06-03T00:52:21.466Z,38.07
2018-06-03T00:54:49.752Z,37.00
2018-06-03T00:57:18.026Z,38.13
2018-06-03T00:59:46.302Z,36.83
2018-06-03T01:02:15.353Z,38.77
2018-06-03T01:04:43.626Z,39.07
2018-06-03T01:07:11.899Z,36.43
2018-06-03T01:09:40.184Z,41.40
2018-06-03T01:12:09.330Z,39.53
2018-06-03T01:14:37.703Z,39.00
2018-06-03T01:17:06.098Z,40.70
2018-06-03T01:19:34.359Z,39.20
2018-06-03T01:22:03.422Z,42.67
2018-06-03T01:24:31.716Z,43.23
2018-06-03T01:26:59.983Z,37.43
2018-06-03T01:29:28.268Z,38.23
2018-06-03T01:31:56.558Z,39.13
2018-06-03T01:34:24.821Z,43.07
2018-06-03T01:36:53.120Z,45.17
2018-06-03T01:39:21.416Z,41.07
2018-06-03T01:41:49.691Z,46.53
2018-06-03T01:44:17.977Z,44.37
2018-06-03T01:46:47.022Z,45.67
2018-06-03T01:49:15.295Z,48.07
2018-06-03T01:51:43.567Z,49.73
2018-06-03T01:54:11.864Z,43.40
2018-06-03T01:56:40.892Z,50.23
2018-06-03T01:59:09.155Z,49.43
2018-06-03T02:01:38.214Z,43.07
2018-06-03T02:04:07.390Z,50.57
2018-06-03T02:06:35.712Z,50.07
2018-06-03T02:09:03.988Z,34.60
2018-06-03T02:11:32.242Z,44.33
2018-06-03T02:14:01.263Z,44.70
2018-06-03T02:16:29.602Z,44.67
2018-06-03T02:18:57.885Z,44.80
2018-06-03T02:21:26.149Z,43.97
2018-06-03T02:23:54.526Z,40.23
2018-06-03T02:26:22.830Z,44.37
2018-06-03T02:28:51.233Z,46.63
2018-06-03T02:31:19.541Z,46.93
2018-06-03T02:33:47.842Z,41.77
2018-06-03T02:36:16.108Z,48.13
2018-06-03T02:38:44.380Z,42.37
2018-06-03T02:41:12.668Z,38.97
2018-06-03T02:43:40.941Z,42.17
2018-06-03T02:46:09.994Z,45.30
2018-06-03T02:48:39.260Z,46.60
2018-06-03T02:51:08.911Z,36.30
2018-06-03T02:53:37.259Z,44.07
2018-06-03T02:56:06.297Z,43.30
2018-06-03T02:58:35.119Z,44.57
2018-06-03T03:01:04.821Z,37.77
2018-06-03T03:03:33.471Z,46.57
2018-06-03T03:06:01.911Z,45.17
2018-06-03T03:08:30.564Z,44.67
2018-06-03T03:10:59.058Z,49.30
2018-06-03T03:13:27.422Z,47.60
2018-06-03T03:15:55.727Z,52.50
2018-06-03T03:18:24.634Z,50.57
2018-06-03T03:20:53.067Z,47.40
2018-06-03T03:23:22.430Z,48.87
2018-06-03T03:25:52.904Z,54.33
2018-06-03T03:28:22.848Z,50.80
2018-06-03T03:30:52.004Z,52.17
2018-06-03T03:33:22.317Z,55.90
2018-06-03T03:35:52.072Z,53.13
2018-06-03T03:38:22.553Z,52.23
2018-06-03T03:40:52.828Z,52.43
2018-06-03T03:43:22.513Z,56.80
2018-06-03T03:45:52.453Z,51.33
2018-06-03T03:48:21.633Z,55.23
2018-06-03T03:50:50.574Z,55.37
2018-06-03T03:53:20.810Z,50.87
2018-06-03T03:55:50.495Z,55.73
2018-06-03T03:58:19.998Z,53.10
2018-06-03T04:00:49.248Z,50.03
2018-06-03T04:03:17.569Z,52.47
2018-06-03T04:05:46.061Z,47.43
2018-06-03T04:08:14.460Z,49.80
2018-06-03T04:10:43.595Z,47.13
2018-06-03T04:13:11.955Z,47.07
2018-06-03T04:15:40.198Z,45.67
2018-06-03T04:18:08.504Z,44.43
2018-06-03T04:20:36.812Z,47.17
2018-06-03T04:23:05.109Z,48.07
2018-06-03T04:25:34.446Z,44.50
2018-06-03T04:28:02.701Z,42.37
2018-06-03T04:30:30.985Z,41.33
2018-06-03T04:32:59.236Z,44.03
2018-06-03T04:35:27.604Z,44.87
2018-06-03T04:37:55.890Z,45.13
2018-06-03T04:40:24.313Z,43.93
2018-06-03T04:42:52.628Z,48.37
2018-06-03T04:45:20.925Z,45.90
2018-06-03T04:47:50.905Z,43.60
2018-06-03T04:50:19.668Z,46.53
2018-06-03T04:52:49.264Z,45.67
2018-06-03T04:55:17.574Z,48.77
2018-06-03T04:57:45.845Z,46.83
2018-06-03T05:00:14.145Z,48.87
2018-06-03T05:02:42.474Z,50.03
2018-06-03T05:05:11.504Z,48.77
2018-06-03T05:07:39.972Z,45.37
2018-06-03T05:10:09.144Z,44.90
2018-06-03T05:12:37.409Z,42.17
2018-06-03T05:15:05.669Z,47.50
2018-06-03T05:17:33.928Z,49.07
2018-06-03T05:20:02.189Z,46.50
2018-06-03T05:22:30.466Z,48.70
2018-06-03T05:24:58.725Z,48.33
2018-06-03T05:27:26.998Z,48.23
2018-06-03T05:29:56.051Z,47.87
2018-06-03T05:35:21.565Z,47.87
2018-06-03T05:37:50.056Z,50.13
2018-06-03T05:40:18.483Z,51.10
2018-06-03T05:42:46.760Z,51.13
2018-06-03T05:45:15.082Z,48.27
2018-06-03T05:47:43.350Z,48.80
2018-06-03T05:50:11.625Z,49.07
2018-06-03T05:52:40.672Z,47.73
2018-06-03T05:55:08.949Z,48.47
2018-06-03T05:57:37.238Z,43.63
2018-06-03T06:00:05.504Z,44.37
2018-06-03T06:02:34.542Z,48.57
2018-06-03T06:05:02.819Z,43.57
2018-06-03T06:07:31.109Z,39.73
2018-06-03T06:09:59.377Z,42.53
2018-06-03T06:12:28.428Z,42.20
2018-06-03T06:14:56.701Z,41.57
2018-06-03T06:17:24.987Z,45.67
2018-06-03T06:19:53.258Z,40.53
2018-06-03T06:22:22.293Z,40.17
2018-06-03T06:24:50.631Z,39.80
2018-06-03T06:27:18.935Z,42.67
2018-06-03T06:29:47.979Z,41.70
2018-06-03T06:32:16.238Z,42.67
2018-06-03T06:34:46.042Z,41.37
2018-06-03T06:37:14.282Z,44.10
2018-06-03T06:39:42.551Z,48.27
2018-06-03T06:42:11.586Z,43.93
2018-06-03T06:44:39.890Z,42.67
2018-06-03T06:47:08.149Z,45.03
2018-06-03T06:49:36.443Z,47.33
2018-06-03T06:52:04.712Z,43.57
2018-06-03T06:54:33.743Z,43.00
2018-06-03T06:57:02.029Z,41.83
2018-06-03T06:59:30.330Z,45.03
2018-06-03T07:01:58.584Z,43.53
2018-06-03T07:04:26.871Z,40.93
2018-06-03T07:06:55.133Z,43.43
2018-06-03T07:09:23.467Z,45.07
2018-06-03T07:11:51.766Z,50.63
2018-06-03T07:14:20.816Z,46.73
2018-06-03T07:16:49.139Z,44.43
2018-06-03T07:19:17.407Z,47.27
2018-06-03T07:21:45.675Z,45.10
2018-06-03T07:24:13.973Z,47.70
2018-06-03T07:26:42.292Z,38.63
2018-06-03T07:29:10.642Z,44.40
2018-06-03T07:31:38.910Z,41.07
2018-06-03T07:34:07.943Z,35.50
2018-06-03T07:36:36.229Z,40.53
2018-06-03T07:39:04.775Z,42.87
2018-06-03T07:41:33.109Z,37.43
2018-06-03T07:44:02.170Z,42.47
2018-06-03T07:46:30.445Z,43.77
2018-06-03T07:48:58.728Z,39.17
2018-06-03T07:51:27.003Z,38.00
2018-06-03T07:53:55.304Z,41.00
2018-06-03T07:56:23.564Z,41.27
2018-06-03T07:58:51.849Z,43.07
2018-06-03T08:01:20.907Z,39.23
2018-06-03T08:03:49.213Z,43.90
2018-06-03T08:06:17.472Z,42.70
2018-06-03T08:08:45.746Z,41.73
2018-06-03T08:11:14.018Z,47.27
2018-06-03T08:13:43.139Z,46.57
2018-06-03T08:16:11.412Z,40.70
2018-06-03T08:18:40.061Z,41.97
2018-06-03T08:21:08.358Z,42.10
2018-06-03T08:23:36.627Z,47.40
2018-06-03T08:26:04.922Z,45.13
2018-06-03T08:28:33.231Z,42.37
2018-06-03T08:31:01.571Z,41.10
2018-06-03T08:33:30.641Z,44.57
2018-06-03T08:35:58.907Z,39.37
2018-06-03T08:38:27.171Z,46.37
2018-06-03T08:40:56.226Z,41.23
2018-06-03T08:43:24.636Z,44.93
2018-06-03T08:45:52.959Z,42.13
2018-06-03T08:48:21.288Z,42.20
2018-06-03T08:50:49.585Z,38.50
2018-06-03T08:53:17.852Z,38.57
2018-06-03T08:55:46.182Z,40.97
2018-06-03T08:58:14.440Z,38.20
2018-06-03T09:00:43.340Z,36.17
2018-06-03T09:03:11.603Z,39.27
2018-06-03T09:05:39.882Z,35.10
2018-06-03T09:08:08.900Z,38.20
2018-06-03T09:10:37.217Z,40.40
2018-06-03T09:13:05.498Z,40.63
2018-06-03T09:15:33.743Z,35.97
2018-06-03T09:18:02.806Z,37.87
2018-06-03T09:20:31.071Z,34.50
2018-06-03T09:23:00.290Z,35.10
2018-06-03T09:25:29.223Z,34.60
2018-06-03T09:27:58.442Z,34.83
2018-06-03T09:30:29.060Z,32.37
2018-06-03T09:32:57.525Z,32.87
2018-06-03T09:35:25.862Z,30.57
2018-06-03T09:37:54.191Z,34.73
2018-06-03T09:40:22.532Z,34.07
2018-06-03T09:42:50.827Z,31.00
2018-06-03T09:45:19.114Z,31.70
2018-06-03T09:47:47.363Z,31.87
2018-06-03T09:50:15.628Z,30.97
2018-06-03T09:52:43.913Z,30.90
2018-06-03T09:55:12.196Z,27.50
2018-06-03T09:57:40.470Z,30.30
2018-06-03T10:00:08.739Z,30.83
2018-06-03T10:02:37.004Z,26.53
2018-06-03T10:05:06.028Z,28.03
2018-06-03T10:07:34.303Z,31.27
2018-06-03T10:10:03.334Z,31.13
2018-06-03T10:12:32.185Z,31.30
2018-06-03T10:15:01.404Z,36.40
2018-06-03T10:17:30.216Z,36.67
2018-06-03T10:19:59.345Z,38.33
2018-06-03T10:22:28.402Z,34.17
2018-06-03T10:24:56.718Z,35.73
2018-06-03T10:27:24.995Z,35.33
2018-06-03T10:29:54.351Z,36.23
2018-06-03T10:32:22.721Z,33.77
2018-06-03T10:34:51.501Z,30.10
2018-06-03T10:37:25.700Z,30.57
2018-06-03T10:39:55.465Z,32.30
2018-06-03T10:42:23.808Z,31.07
2018-06-03T10:44:52.121Z,29.80
2018-06-03T10:47:20.378Z,29.97
2018-06-03T10:49:48.683Z,30.47
2018-06-03T10:52:16.950Z,28.50
2018-06-03T10:54:45.983Z,28.83
2018-06-03T10:57:15.751Z,27.30
2018-06-03T10:59:44.032Z,26.67
2018-06-03T11:02:12.300Z,27.00
2018-06-03T11:04:41.455Z,24.97
2018-06-03T11:07:12.732Z,24.10
2018-06-03T11:09:45.856Z,26.20
2018-06-03T11:12:14.529Z,24.27
2018-06-03T11:14:43.730Z,24.20
2018-06-03T11:17:13.096Z,23.33
2018-06-03T11:19:43.008Z,23.37
2018-06-03T11:22:11.563Z,22.13
2018-06-03T11:24:40.641Z,26.60
2018-06-03T11:27:11.226Z,25.40
2018-06-03T11:29:48.112Z,24.43
2018-06-03T11:32:19.504Z,35.60
2018-06-03T11:35:31.007Z,25.55
2018-06-03T11:38:00.931Z,25.10
2018-06-03T11:40:31.271Z,25.53
2018-06-03T11:43:00.914Z,29.10
2018-06-03T11:45:30.809Z,28.27
2018-06-03T11:48:01.033Z,26.93
2018-06-03T11:50:30.755Z,26.40
2018-06-03T11:53:00.315Z,26.63
2018-06-03T11:55:30.372Z,26.83
2018-06-03T12:00:11.397Z,29.27
2018-06-03T12:02:42.240Z,32.23
2018-06-03T12:05:14.687Z,34.70
2018-06-03T12:07:45.471Z,32.17
2018-06-03T12:10:19.895Z,48.70
2018-06-03T12:12:51.631Z,32.80
2018-06-03T12:15:21.927Z,37.33
2018-06-03T12:17:54.565Z,33.30
2018-06-03T12:20:27.405Z,31.63
2018-06-03T12:22:58.903Z,31.73
2018-06-03T12:25:29.547Z,32.00
2018-06-03T12:27:58.872Z,32.43
2018-06-03T12:30:28.225Z,32.87
2018-06-03T12:32:57.580Z,32.97
2018-06-03T12:35:27.148Z,31.93
2018-06-03T12:37:56.472Z,36.40
2018-06-03T12:40:25.802Z,33.47
2018-06-03T12:42:55.204Z,32.27
2018-06-03T12:45:24.599Z,35.07
2018-06-03T12:47:54.892Z,30.57
2018-06-03T12:50:24.321Z,32.33
2018-06-03T12:52:53.683Z,29.87
2018-06-03T12:55:23.135Z,31.93
2018-06-03T12:57:52.574Z,32.73
2018-06-03T13:00:21.933Z,31.97
2018-06-03T13:02:51.277Z,31.63
2018-06-03T13:05:20.729Z,30.80
2018-06-03T13:07:50.110Z,30.13
2018-06-03T13:10:19.517Z,33.03
2018-06-03T13:12:48.821Z,32.47
2018-06-03T13:15:18.176Z,32.60
2018-06-03T13:17:47.632Z,31.07
2018-06-03T13:20:16.910Z,31.60
2018-06-03T13:22:46.498Z,31.57
2018-06-03T13:25:15.809Z,32.27
2018-06-03T13:27:45.136Z,31.23
2018-06-03T13:30:14.459Z,31.60
2018-06-03T13:32:43.812Z,31.73
2018-06-03T13:35:15.967Z,31.83
2018-06-03T13:37:48.321Z,31.83
2018-06-03T13:40:20.596Z,31.30
2018-06-03T13:42:52.296Z,30.47
2018-06-03T13:45:25.261Z,30.60
2018-06-03T13:47:55.394Z,30.93
2018-06-03T13:50:25.484Z,33.63
2018-06-03T13:52:55.520Z,30.30
2018-06-03T13:55:24.826Z,30.40
2018-06-03T13:57:54.242Z,29.80
2018-06-03T14:00:23.511Z,27.83
2018-06-03T14:02:52.787Z,29.50
2018-06-03T14:05:23.866Z,28.77
2018-06-03T14:07:53.685Z,29.87
2018-06-03T14:10:22.980Z,28.83
2018-06-03T14:12:52.357Z,29.40
2018-06-03T14:15:21.797Z,28.10
2018-06-03T14:17:51.170Z,27.83
2018-06-03T14:20:20.478Z,27.90
2018-06-03T14:22:54.230Z,26.13
2018-06-03T14:25:23.540Z,26.43
2018-06-03T14:27:52.797Z,27.37
2018-06-03T14:30:22.145Z,26.83
2018-06-03T14:32:51.437Z,27.93
2018-06-03T14:35:20.780Z,26.97
2018-06-03T14:37:50.072Z,27.03
2018-06-03T14:40:19.695Z,25.93
2018-06-03T14:42:49.169Z,25.57
2018-06-03T14:45:18.633Z,26.90
2018-06-03T14:47:47.928Z,27.87
2018-06-03T14:50:17.416Z,26.13
2018-06-03T14:52:46.811Z,26.50
2018-06-03T14:55:16.379Z,25.80
2018-06-03T14:57:46.069Z,24.33
2018-06-03T15:00:15.527Z,25.77
2018-06-03T15:02:45.162Z,26.13
2018-06-03T15:05:15.231Z,27.07
2018-06-03T15:07:45.449Z,27.40
2018-06-03T15:10:15.330Z,27.00
2018-06-03T15:12:45.486Z,29.27
2018-06-03T15:15:15.116Z,26.17
2018-06-03T15:17:44.896Z,27.87
2018-06-03T15:20:14.925Z,26.87
2018-06-03T15:22:44.624Z,26.80
2018-06-03T15:25:14.367Z,27.17
2018-06-03T15:27:44.015Z,26.27
2018-06-03T15:30:15.981Z,27.87
2018-06-03T15:32:45.631Z,26.20
2018-06-03T15:35:16.438Z,27.23
2018-06-03T15:37:47.678Z,25.37
2018-06-03T15:40:17.809Z,26.60
2018-06-03T15:42:47.639Z,26.23
2018-06-03T15:45:17.492Z,24.87
2018-06-03T15:47:47.270Z,24.50
2018-06-03T15:50:17.241Z,27.17
2018-06-03T15:52:53.440Z,26.50
2018-06-03T15:55:23.014Z,26.37
2018-06-03T15:57:52.521Z,25.40
2018-06-03T16:00:22.004Z,26.03
2018-06-03T16:02:51.769Z,25.77
2018-06-03T16:05:21.249Z,21.97
2018-06-03T16:07:50.746Z,22.30
2018-06-03T16:10:20.255Z,23.27
2018-06-03T16:12:49.860Z,24.50
2018-06-03T16:15:19.356Z,23.37
2018-06-03T16:17:48.769Z,21.90
2018-06-03T16:20:18.331Z,22.30
2018-06-03T16:22:47.815Z,21.43
2018-06-03T16:25:17.085Z,19.90
2018-06-03T16:27:46.658Z,21.20
2018-06-03T16:30:16.183Z,20.40
2018-06-03T16:32:45.997Z,22.73
2018-06-03T16:35:15.797Z,19.23
2018-06-03T16:37:46.498Z,19.03
2018-06-03T16:40:16.986Z,18.97
2018-06-03T16:42:46.632Z,18.40
2018-06-03T16:45:16.369Z,17.37
2018-06-03T16:47:46.128Z,16.97
2018-06-03T16:50:15.875Z,18.20
2018-06-03T16:52:45.510Z,18.47
2018-06-03T16:55:18.851Z,17.50
2018-06-03T16:57:48.429Z,17.40
2018-06-03T17:00:18.302Z,18.32
2018-06-03T17:02:47.751Z,17.53
2018-06-03T17:05:17.249Z,18.50
2018-06-03T17:07:50.380Z,19.00
2018-06-03T17:10:19.763Z,19.20
2018-06-03T17:12:49.133Z,19.80
2018-06-03T17:15:18.608Z,18.70
2018-06-03T17:17:47.990Z,19.50
2018-06-03T17:20:17.538Z,19.33
2018-06-03T17:22:46.888Z,18.67
2018-06-03T17:25:16.251Z,17.80
2018-06-03T17:27:46.581Z,17.40
2018-06-03T17:30:15.845Z,19.30
2018-06-03T17:32:45.247Z,15.83
2018-06-03T17:35:14.660Z,14.80
2018-06-03T17:37:44.057Z,15.13
2018-06-03T17:40:13.505Z,14.53
2018-06-03T17:42:42.868Z,16.00
2018-06-03T17:45:12.283Z,14.60
2018-06-03T17:47:41.788Z,14.03
2018-06-03T17:50:11.315Z,15.57
2018-06-03T17:52:40.847Z,15.37
2018-06-03T17:55:10.620Z,13.80
2018-06-03T17:57:40.010Z,14.23
2018-06-03T18:00:09.532Z,14.97
2018-06-03T18:02:39.018Z,13.67
2018-06-03T18:05:08.430Z,13.73
2018-06-03T18:07:37.804Z,12.87
2018-06-03T18:10:07.172Z,14.30
2018-06-03T18:12:36.489Z,13.20
2018-06-03T18:15:05.586Z,12.93
2018-06-03T18:17:36.378Z,13.83
2018-06-03T18:20:05.964Z,12.27
2018-06-03T18:22:35.288Z,13.60
2018-06-03T18:25:04.635Z,13.97
2018-06-03T18:27:33.926Z,14.80
2018-06-03T18:30:03.215Z,13.90
2018-06-03T18:32:32.508Z,13.67
2018-06-03T18:35:01.864Z,13.07
2018-06-03T18:37:31.170Z,12.97
2018-06-03T18:40:00.479Z,14.17
2018-06-03T18:42:29.840Z,12.70
2018-06-03T18:44:59.191Z,14.13
2018-06-03T18:47:28.480Z,14.90
2018-06-03T18:49:57.760Z,14.73
2018-06-03T18:52:28.044Z,14.37
2018-06-03T18:54:57.402Z,13.33
2018-06-03T18:57:26.719Z,12.93
2018-06-03T18:59:55.997Z,14.07
2018-06-03T19:02:25.359Z,14.60
2018-06-03T19:04:54.624Z,14.57
2018-06-03T19:07:24.044Z,14.13
2018-06-03T19:09:53.367Z,13.77
2018-06-03T19:12:22.919Z,14.47
2018-06-03T19:14:52.225Z,13.40
2018-06-03T19:17:21.540Z,14.50
2018-06-03T19:19:50.967Z,13.43
2018-06-03T19:22:20.363Z,16.23
2018-06-03T19:24:49.742Z,14.73
2018-06-03T19:27:19.199Z,14.33
2018-06-03T19:29:48.559Z,14.73
2018-06-03T19:32:18.062Z,13.97
2018-06-03T19:34:47.565Z,14.23
2018-06-03T19:37:16.968Z,14.33
2018-06-03T19:39:46.193Z,12.93
2018-06-03T19:42:15.719Z,14.67
2018-06-03T19:44:45.032Z,13.47
2018-06-03T19:47:14.782Z,14.53
2018-06-03T19:52:25.220Z,14.40
2018-06-03T19:54:54.619Z,15.53
2018-06-03T19:57:24.001Z,14.47
2018-06-03T19:59:53.437Z,14.90
2018-06-03T20:02:22.728Z,14.53
2018-06-03T20:04:52.237Z,14.93
2018-06-03T20:07:21.766Z,12.97
2018-06-03T20:09:51.314Z,14.00
2018-06-03T20:12:20.864Z,14.00
2018-06-03T20:14:50.469Z,14.93
2018-06-03T20:17:19.864Z,13.07
2018-06-03T20:19:49.261Z,14.13
2018-06-03T20:22:18.689Z,13.37
2018-06-03T20:24:48.451Z,15.20
2018-06-03T20:27:17.763Z,13.20
2018-06-03T20:29:47.069Z,16.30
2018-06-03T20:32:16.916Z,13.80
2018-06-03T20:34:46.313Z,13.70
2018-06-03T20:37:15.871Z,14.23
2018-06-03T20:39:45.330Z,13.80
2018-06-03T20:42:14.913Z,15.53
2018-06-03T20:44:44.387Z,14.67
2018-06-03T20:47:13.839Z,13.23
2018-06-03T20:49:43.276Z,13.40
2018-06-03T20:52:12.896Z,14.43
2018-06-03T20:54:42.222Z,15.03
2018-06-03T20:57:11.581Z,14.00
2018-06-03T20:59:41.262Z,14.47
2018-06-03T21:02:10.757Z,13.57
2018-06-03T21:04:40.146Z,12.97
2018-06-03T21:07:09.672Z,13.67
2018-06-03T21:09:39.061Z,13.93
2018-06-03T21:12:08.542Z,14.00
2018-06-03T21:14:38.996Z,14.07
2018-06-03T21:17:08.356Z,13.83
2018-06-03T21:19:37.687Z,15.43
2018-06-03T21:22:06.975Z,17.20
2018-06-03T21:24:37.271Z,14.80
2018-06-03T21:27:06.518Z,16.20
2018-06-03T21:29:35.888Z,15.80
2018-06-03T21:32:05.190Z,15.80
2018-06-03T21:34:34.482Z,14.23
2018-06-03T21:37:03.803Z,14.10
2018-06-03T21:39:33.241Z,13.87
2018-06-03T21:42:02.547Z,13.87
2018-06-03T21:44:31.891Z,14.83
2018-06-03T21:47:01.913Z,14.83
2018-06-03T21:49:31.216Z,13.30
2018-06-03T21:52:00.359Z,13.63
2018-06-03T21:54:33.501Z,15.33
2018-06-03T21:57:02.996Z,15.33
2018-06-03T21:59:32.372Z,13.23
2018-06-03T22:02:01.677Z,14.00
2018-06-03T22:04:30.960Z,15.33
2018-06-03T22:07:00.274Z,14.33
2018-06-03T22:09:29.626Z,15.87
2018-06-03T22:11:58.887Z,14.70
2018-06-03T22:14:37.898Z,14.93
2018-06-03T22:17:33.093Z,16.63
2018-06-03T22:20:05.919Z,16.47
2018-06-03T22:22:35.232Z,16.80
2018-06-03T22:25:04.656Z,16.07
2018-06-03T22:27:34.046Z,15.67
2018-06-03T22:30:03.579Z,16.33
2018-06-03T22:32:35.030Z,14.87
2018-06-03T22:35:04.150Z,14.47
2018-06-03T22:37:33.466Z,15.93
2018-06-03T22:40:02.903Z,16.53
2018-06-03T22:42:32.274Z,19.40
2018-06-03T22:45:01.562Z,16.13
2018-06-03T22:48:09.961Z,15.27
2018-06-03T22:50:40.212Z,17.90
2018-06-03T22:53:09.678Z,15.70
2018-06-03T22:55:42.209Z,15.60
2018-06-03T22:58:11.817Z,14.57
2018-06-03T23:00:41.427Z,16.83
2018-06-03T23:03:14.962Z,16.53
2018-06-03T23:05:44.451Z,14.73
2018-06-03T23:08:13.907Z,15.17
2018-06-03T23:10:43.351Z,14.03
2018-06-03T23:13:12.789Z,15.43
2018-06-03T23:15:42.222Z,15.43
2018-06-03T23:18:11.750Z,14.27
2018-06-03T23:32:28.830Z,15.53
2018-06-03T23:34:58.120Z,15.50
2018-06-03T23:37:27.459Z,17.20
2018-06-03T23:39:56.885Z,17.33
2018-06-03T23:42:26.172Z,16.57
2018-06-03T23:44:55.447Z,18.33
2018-06-03T23:47:24.873Z,15.67
2018-06-03T23:49:54.249Z,14.63
2018-06-03T23:52:23.504Z,16.73
2018-06-03T23:54:52.874Z,18.17
2018-06-03T23:57:22.102Z,15.40
2018-06-03T23:59:51.377Z,16.57
